createdAt,value
2023-05-19T00:00:28.599Z,102220.78
2023-05-19T00:02:56.202Z,102220.78
2023-05-19T00:05:23.123Z,102224.25
2023-05-19T00:07:49.818Z,102219.91
2023-05-19T00:10:16.673Z,102219.03
2023-05-19T00:12:43.717Z,102221.66
2023-05-19T00:15:10.600Z,102219.06
2023-05-19T00:17:38.325Z,102222.53
2023-05-19T00:20:07.392Z,102222.53
2023-05-19T00:22:34.253Z,102221.69
2023-05-19T00:25:00.796Z,102220.81
2023-05-19T00:27:27.219Z,102223.44
2023-05-19T00:29:53.569Z,102219.03
2023-05-19T00:32:19.991Z,102224.31
2023-05-19T00:34:48.415Z,102223.41
2023-05-19T00:37:14.769Z,102221.66
2023-05-19T00:39:41.155Z,102221.69
2023-05-19T00:42:07.576Z,102223.44
2023-05-19T00:44:33.922Z,102222.53
2023-05-19T00:47:00.438Z,102220.81
2023-05-19T00:49:26.916Z,102229.50
2023-05-19T00:51:53.262Z,102219.06
2023-05-19T00:54:19.619Z,102221.69
2023-05-19T00:56:46.031Z,102222.53
2023-05-19T00:59:12.447Z,102223.41
2023-05-19T01:01:38.998Z,102224.28
2023-05-19T01:04:05.650Z,102218.19
2023-05-19T01:06:32.163Z,102223.41
2023-05-19T01:08:58.590Z,102227.78
2023-05-19T01:11:25.219Z,102219.94
2023-05-19T01:13:51.606Z,102215.56
2023-05-19T01:16:23.921Z,102213.81
2023-05-19T01:18:50.974Z,102212.94
2023-05-19T01:21:17.359Z,102215.56
2023-05-19T01:23:49.224Z,102222.53
2023-05-19T01:26:25.998Z,102218.19
2023-05-19T01:29:09.302Z,102217.31
2023-05-19T01:31:37.014Z,102216.44
2023-05-19T01:34:04.713Z,102219.03
2023-05-19T01:36:31.139Z,102213.84
2023-05-19T01:38:58.423Z,102218.16
2023-05-19T01:41:24.889Z,102216.44
2023-05-19T01:43:51.301Z,102217.31
2023-05-19T01:46:17.925Z,102214.69
2023-05-19T01:48:44.849Z,102214.69
2023-05-19T01:51:11.195Z,102219.94
2023-05-19T01:53:37.593Z,102217.31
2023-05-19T01:56:04.907Z,102219.03
2023-05-19T01:58:31.323Z,102217.31
2023-05-19T02:00:57.784Z,102214.72
2023-05-19T02:03:27.237Z,102213.81
2023-05-19T02:06:12.470Z,102213.81
2023-05-19T02:08:38.827Z,102210.34
2023-05-19T02:11:09.467Z,102211.22
2023-05-19T02:13:36.983Z,102205.09
2023-05-19T02:16:04.336Z,102207.72
2023-05-19T02:18:31.395Z,102202.47
2023-05-19T02:20:57.791Z,102201.59
2023-05-19T02:23:24.332Z,102203.38
2023-05-19T02:25:50.728Z,102205.13
2023-05-19T02:28:17.402Z,102200.75
2023-05-19T02:30:43.789Z,102203.34
2023-05-19T02:33:11.417Z,102202.47
2023-05-19T02:35:37.864Z,102203.38
2023-05-19T02:38:04.356Z,102198.13
2023-05-19T02:40:30.885Z,102195.50
2023-05-19T02:42:57.663Z,102199.00
2023-05-19T02:45:24.221Z,102199.00
2023-05-19T02:47:50.695Z,102192.03
2023-05-19T02:50:17.312Z,102190.28
2023-05-19T02:52:43.710Z,102191.16
2023-05-19T02:55:10.072Z,102192.03
2023-05-19T02:57:36.525Z,102191.16
2023-05-19T03:00:03.467Z,102193.75
2023-05-19T03:02:30.014Z,102199.84
2023-05-19T03:04:56.502Z,102190.25
2023-05-19T03:07:25.235Z,102194.63
2023-05-19T03:09:52.447Z,102204.19
2023-05-19T03:12:18.857Z,102200.72
2023-05-19T03:14:45.289Z,102204.19
2023-05-19T03:17:12.306Z,102198.97
2023-05-19T03:19:38.736Z,102198.94
2023-05-19T03:22:05.162Z,102198.97
2023-05-19T03:24:31.633Z,102201.56
2023-05-19T03:26:58.136Z,102199.81
2023-05-19T03:29:24.495Z,102198.06
2023-05-19T03:31:52.016Z,102200.66
2023-05-19T03:34:18.425Z,102200.66
2023-05-19T03:36:45.075Z,102203.28
2023-05-19T03:39:11.666Z,102202.38
2023-05-19T03:41:38.118Z,102204.97
2023-05-19T03:44:04.639Z,102206.72
2023-05-19T03:46:31.055Z,102212.81
2023-05-19T03:48:57.498Z,102211.03
2023-05-19T03:51:23.866Z,102210.13
2023-05-19T03:53:50.276Z,102214.47
2023-05-19T03:56:18.186Z,102217.09
2023-05-19T03:58:45.070Z,102210.03
2023-05-19T04:01:11.901Z,102214.38
2023-05-19T04:03:38.481Z,102210.84
2023-05-19T04:06:04.994Z,102211.69
2023-05-19T04:08:38.764Z,102216.03
2023-05-19T04:11:07.155Z,102214.25
2023-05-19T04:13:34.036Z,102211.63
2023-05-19T04:16:00.436Z,102204.66
2023-05-19T04:18:28.932Z,102204.56
2023-05-19T04:20:55.790Z,102204.56
2023-05-19T04:23:22.189Z,102208.91
2023-05-19T04:25:48.814Z,102208.84
2023-05-19T04:28:15.566Z,102209.69
2023-05-19T04:30:42.852Z,102208.75
2023-05-19T04:33:09.399Z,102206.09
2023-05-19T04:35:38.055Z,102206.03
2023-05-19T04:38:04.431Z,102204.22
2023-05-19T04:40:31.513Z,102208.59
2023-05-19T04:42:59.039Z,102209.41
2023-05-19T04:45:26.124Z,102207.59
2023-05-19T04:47:52.795Z,102204.06
2023-05-19T04:50:19.612Z,102206.59
2023-05-19T04:52:45.956Z,102210.06
2023-05-19T04:55:13.230Z,102209.16
2023-05-19T04:57:40.014Z,102212.63
2023-05-19T05:00:08.723Z,102210.84
2023-05-19T05:02:35.257Z,102216.03
2023-05-19T05:05:01.664Z,102216.00
2023-05-19T05:07:29.361Z,102222.97
2023-05-19T05:09:56.727Z,102225.59
2023-05-19T05:12:23.174Z,102225.59
2023-05-19T05:14:51.188Z,102229.06
2023-05-19T05:17:17.758Z,102228.09
2023-05-19T05:19:44.355Z,102226.28
2023-05-19T05:22:10.926Z,102220.97
2023-05-19T05:24:37.461Z,102227.03
2023-05-19T05:27:04.523Z,102219.09
2023-05-19T05:29:30.951Z,102223.41
2023-05-19T05:31:57.895Z,102225.97
2023-05-19T05:34:24.482Z,102216.19
2023-05-19T05:36:51.044Z,102217.91
2023-05-19T05:39:17.540Z,102217.03
2023-05-19T05:41:43.912Z,102219.50
2023-05-19T05:44:10.365Z,102223.00
2023-05-19T05:46:36.941Z,102220.25
2023-05-19T05:49:03.535Z,102223.63
2023-05-19T05:51:30.167Z,102219.09
2023-05-19T05:53:56.607Z,102225.19
2023-05-19T05:56:23.141Z,102225.03
2023-05-19T05:58:50.541Z,102224.97
2023-05-19T06:01:18.020Z,102223.09
2023-05-19T06:03:44.838Z,102223.72
2023-05-19T06:06:11.676Z,102228.88
2023-05-19T06:08:38.062Z,102229.69
2023-05-19T06:11:09.084Z,102235.72
2023-05-19T06:13:38.836Z,102230.28
2023-05-19T06:16:05.742Z,102237.13
2023-05-19T06:18:32.464Z,102237.09
2023-05-19T06:20:58.933Z,102240.41
2023-05-19T06:23:26.829Z,102239.28
2023-05-19T06:25:53.336Z,102237.00
2023-05-19T06:28:19.828Z,102241.84
2023-05-19T06:30:46.259Z,102234.06
2023-05-19T06:33:12.618Z,102237.28
2023-05-19T06:35:39.126Z,102248.56
2023-05-19T06:38:05.608Z,102248.81
2023-05-19T06:40:32.280Z,102243.78
2023-05-19T06:42:58.894Z,102241.31
2023-05-19T06:45:25.432Z,102239.56
2023-05-19T06:47:51.924Z,102234.81
2023-05-19T06:50:18.471Z,102229.94
2023-05-19T06:52:46.947Z,102229.81
2023-05-19T06:55:13.336Z,102238.13
2023-05-19T06:57:39.858Z,102230.69
2023-05-19T07:00:09.610Z,102224.59
2023-05-19T07:02:36.055Z,102238.16
2023-05-19T07:05:03.212Z,102227.94
2023-05-19T07:07:29.613Z,102228.22
2023-05-19T07:09:56.254Z,102230.13
2023-05-19T07:12:22.701Z,102233.28
2023-05-19T07:14:49.070Z,102229.06
2023-05-19T07:17:15.923Z,102227.56
2023-05-19T07:19:42.350Z,102229.63
2023-05-19T07:22:08.807Z,102235.00
2023-05-19T07:24:37.255Z,102232.47
2023-05-19T07:27:03.774Z,102225.72
2023-05-19T07:29:30.125Z,102228.72
2023-05-19T07:31:57.971Z,102226.63
2023-05-19T07:34:24.809Z,102228.69
2023-05-19T07:36:52.066Z,102222.16
2023-05-19T07:39:18.546Z,102226.34
2023-05-19T07:41:45.140Z,102230.88
2023-05-19T07:44:11.548Z,102233.75
2023-05-19T07:46:38.113Z,102239.59
2023-05-19T07:49:04.713Z,102242.13
2023-05-19T07:51:31.776Z,102238.66
2023-05-19T07:53:58.292Z,102236.13
2023-05-19T07:56:25.020Z,102234.06
2023-05-19T07:58:51.782Z,102239.06
2023-05-19T08:01:18.173Z,102234.56
2023-05-19T08:03:44.695Z,102238.09
2023-05-19T08:06:11.230Z,102235.47
2023-05-19T08:08:37.686Z,102237.38
2023-05-19T08:11:04.576Z,102241.81
2023-05-19T08:13:31.434Z,102238.34
2023-05-19T08:15:59.923Z,102235.00
2023-05-19T08:18:26.779Z,102236.69
2023-05-19T08:20:53.203Z,102217.28
2023-05-19T08:23:19.682Z,102222.28
2023-05-19T08:25:46.116Z,102224.09
2023-05-19T08:28:12.495Z,102225.09
2023-05-19T08:30:38.972Z,102224.84
2023-05-19T08:33:05.525Z,102224.94
2023-05-19T08:35:32.000Z,102226.81
2023-05-19T08:37:58.372Z,102225.97
2023-05-19T08:40:24.869Z,102229.50
2023-05-19T08:42:51.335Z,102227.06
2023-05-19T08:45:17.715Z,102227.28
2023-05-19T08:47:45.825Z,102230.59
2023-05-19T08:50:12.232Z,102229.47
2023-05-19T08:52:47.877Z,102231.25
2023-05-19T08:55:24.081Z,102219.91
2023-05-19T08:57:50.855Z,102225.84
2023-05-19T09:00:17.296Z,102229.06
2023-05-19T09:02:50.795Z,102231.06
2023-05-19T09:05:27.584Z,102233.59
2023-05-19T09:07:54.082Z,102237.06
2023-05-19T09:10:20.514Z,102240.56
2023-05-19T09:12:47.704Z,102234.25
2023-05-19T09:15:17.470Z,102239.38
2023-05-19T09:17:44.807Z,102236.13
2023-05-19T09:20:11.542Z,102228.25
2023-05-19T09:22:41.771Z,102227.94
2023-05-19T09:25:17.589Z,102225.25
2023-05-19T09:27:43.989Z,102218.34
2023-05-19T09:30:10.532Z,102226.09
2023-05-19T09:32:37.049Z,102222.56
2023-05-19T09:35:04.120Z,102225.03
2023-05-19T09:37:31.012Z,102225.94
2023-05-19T09:39:57.769Z,102222.47
2023-05-19T09:42:25.939Z,102218.94
2023-05-19T09:45:01.871Z,102212.19
2023-05-19T09:47:29.094Z,102221.03
2023-05-19T09:49:56.887Z,102213.22
2023-05-19T09:52:23.272Z,102215.59
2023-05-19T09:54:51.766Z,102207.91
2023-05-19T09:57:18.468Z,102217.53
2023-05-19T09:59:44.846Z,102215.75
2023-05-19T10:02:15.911Z,102215.69
2023-05-19T10:04:42.368Z,102214.81
2023-05-19T10:07:08.772Z,102214.97
2023-05-19T10:09:35.191Z,102219.22
2023-05-19T10:12:02.071Z,102215.69
2023-05-19T10:14:28.835Z,102212.34
2023-05-19T10:16:56.593Z,102213.59
2023-05-19T10:19:23.725Z,102211.91
2023-05-19T10:21:50.178Z,102213.63
2023-05-19T10:24:16.823Z,102213.53
2023-05-19T10:26:44.336Z,102204.09
2023-05-19T10:29:12.949Z,102207.16
2023-05-19T10:31:40.256Z,102198.16
2023-05-19T10:34:24.754Z,102203.63
2023-05-19T10:36:58.194Z,102203.56
2023-05-19T10:39:32.787Z,102204.66
2023-05-19T10:42:14.098Z,102206.09
2023-05-19T10:44:53.801Z,102209.53
2023-05-19T10:47:24.163Z,102209.00
2023-05-19T10:49:54.273Z,102207.31
2023-05-19T10:52:25.830Z,102207.41
2023-05-19T10:54:54.362Z,102208.53
2023-05-19T10:57:27.220Z,102204.75
2023-05-19T10:59:53.621Z,102211.81
2023-05-19T11:02:47.456Z,102209.13
2023-05-19T11:05:15.025Z,102204.91
2023-05-19T11:07:43.472Z,102208.59
2023-05-19T11:10:10.126Z,102209.78
2023-05-19T11:12:44.290Z,102214.94
2023-05-19T11:15:14.311Z,102210.53
2023-05-19T11:17:42.357Z,102204.16
2023-05-19T11:20:11.120Z,102204.91
2023-05-19T11:22:38.833Z,102210.09
2023-05-19T11:25:05.256Z,102210.88
2023-05-19T11:27:32.613Z,102210.09
2023-05-19T11:30:00.036Z,102211.94
2023-05-19T11:32:27.096Z,102211.88
2023-05-19T11:34:53.838Z,102208.19
2023-05-19T11:37:20.232Z,102218.63
2023-05-19T11:39:47.428Z,102220.88
2023-05-19T11:42:13.993Z,102217.34
2023-05-19T11:44:46.179Z,102219.66
2023-05-19T11:47:16.279Z,102228.28
2023-05-19T11:49:47.860Z,102226.25
2023-05-19T11:52:14.356Z,102226.41
2023-05-19T11:54:42.181Z,102231.97
2023-05-19T11:57:14.091Z,102229.19
2023-05-19T11:59:48.202Z,102236.00
2023-05-19T12:02:19.025Z,102247.25
2023-05-19T12:04:45.815Z,102249.88
2023-05-19T12:07:13.027Z,102245.66
2023-05-19T12:09:39.748Z,102253.25
2023-05-19T12:12:06.254Z,102258.50
2023-05-19T12:14:32.696Z,102252.09
2023-05-19T12:16:59.465Z,102255.75
2023-05-19T12:19:26.229Z,102264.53
2023-05-19T12:21:52.966Z,102260.94
2023-05-19T12:24:19.903Z,102271.25
2023-05-19T12:26:47.113Z,102269.97
2023-05-19T12:29:13.794Z,102273.47
2023-05-19T12:31:40.441Z,102266.72
2023-05-19T12:34:06.888Z,102272.72
2023-05-19T12:36:33.317Z,102275.03
2023-05-19T12:38:59.992Z,102270.69
2023-05-19T12:41:27.322Z,102273.19
2023-05-19T12:43:56.497Z,102272.44
2023-05-19T12:46:23.521Z,102274.16
2023-05-19T12:48:50.211Z,102275.19
2023-05-19T12:51:17.827Z,102269.19
2023-05-19T12:53:44.681Z,102264.78
2023-05-19T12:56:14.979Z,102264.91
2023-05-19T12:58:41.872Z,102268.97
2023-05-19T13:01:15.153Z,102264.38
2023-05-19T13:03:42.540Z,102252.94
2023-05-19T13:06:12.272Z,102263.31
2023-05-19T13:08:40.053Z,102257.88
2023-05-19T13:11:06.484Z,102257.84
2023-05-19T13:13:32.910Z,102259.09
2023-05-19T13:15:59.356Z,102257.47
2023-05-19T13:18:27.498Z,102262.66
2023-05-19T13:20:54.671Z,102253.19
2023-05-19T13:23:21.087Z,102247.25
2023-05-19T13:25:59.402Z,102249.72
2023-05-19T13:28:26.459Z,102248.19
2023-05-19T13:30:53.418Z,102247.44
2023-05-19T13:33:20.020Z,102242.19
2023-05-19T13:35:46.528Z,102242.31
2023-05-19T13:38:14.617Z,102243.34
2023-05-19T13:40:46.551Z,102235.59
2023-05-19T13:43:13.159Z,102232.09
2023-05-19T13:45:41.102Z,102226.22
2023-05-19T13:48:07.903Z,102230.66
2023-05-19T13:50:34.491Z,102232.25
2023-05-19T13:53:00.939Z,102229.66
2023-05-19T13:55:27.475Z,102233.25
2023-05-19T13:57:53.926Z,102232.44
2023-05-19T14:00:21.328Z,102236.00
2023-05-19T14:02:47.845Z,102227.69
2023-05-19T14:05:14.371Z,102226.94
2023-05-19T14:07:41.293Z,102224.31
2023-05-19T14:10:07.988Z,102218.31
2023-05-19T14:12:45.131Z,102226.38
2023-05-19T14:15:21.891Z,102220.41
2023-05-19T14:17:49.097Z,102231.81
2023-05-19T14:20:15.768Z,102236.13
2023-05-19T14:22:42.192Z,102235.66
2023-05-19T14:25:09.985Z,102236.66
2023-05-19T14:27:36.484Z,102238.59
2023-05-19T14:30:03.309Z,102242.25
2023-05-19T14:32:30.635Z,102250.47
2023-05-19T14:34:57.257Z,102244.66
2023-05-19T14:37:24.180Z,102249.94
2023-05-19T14:39:50.932Z,102249.13
2023-05-19T14:42:38.934Z,102242.19
2023-05-19T14:45:07.500Z,102238.13
2023-05-19T14:47:35.116Z,102232.94
2023-05-19T14:50:01.519Z,102228.50
2023-05-19T14:52:27.997Z,102226.88
2023-05-19T14:54:54.368Z,102220.84
2023-05-19T14:57:20.770Z,102224.28
2023-05-19T14:59:47.239Z,102226.28
2023-05-19T15:02:14.933Z,102226.41
2023-05-19T15:04:41.310Z,102224.72
2023-05-19T15:07:10.802Z,102223.03
2023-05-19T15:09:37.674Z,102224.84
2023-05-19T15:12:04.154Z,102220.47
2023-05-19T15:14:31.289Z,102219.63
2023-05-19T15:16:58.883Z,102218.88
2023-05-19T15:19:26.082Z,102214.47
2023-05-19T15:21:52.860Z,102213.63
2023-05-19T15:24:19.324Z,102213.63
2023-05-19T15:26:47.051Z,102208.19
2023-05-19T15:29:15.530Z,102206.41
2023-05-19T15:31:42.144Z,102201.13
2023-05-19T15:34:08.644Z,102205.44
2023-05-19T15:36:35.142Z,102206.44
2023-05-19T15:39:01.575Z,102201.00
2023-05-19T15:41:28.010Z,102213.22
2023-05-19T15:43:54.457Z,102207.94
2023-05-19T15:46:20.917Z,102210.56
2023-05-19T15:48:47.483Z,102221.09
2023-05-19T15:51:13.985Z,102217.59
2023-05-19T15:53:41.034Z,102221.22
2023-05-19T15:56:07.525Z,102217.75
2023-05-19T15:58:33.944Z,102213.44
2023-05-19T16:01:01.800Z,102214.38
2023-05-19T16:03:29.855Z,102210.84
2023-05-19T16:05:56.749Z,102205.66
2023-05-19T16:08:23.209Z,102207.44
2023-05-19T16:10:49.608Z,102199.53
2023-05-19T16:13:16.268Z,102195.13
2023-05-19T16:15:44.249Z,102199.59
2023-05-19T16:18:11.584Z,102190.88
2023-05-19T16:20:38.288Z,102193.53
2023-05-19T16:23:04.767Z,102192.66
2023-05-19T16:25:31.216Z,102193.50
2023-05-19T16:27:57.751Z,102194.41
2023-05-19T16:30:26.387Z,102188.31
2023-05-19T16:32:58.160Z,102185.69
2023-05-19T16:35:24.853Z,102177.69
2023-05-19T16:37:51.309Z,102188.31
2023-05-19T16:40:17.743Z,102189.22
2023-05-19T16:42:44.152Z,102191.09
2023-05-19T16:45:10.623Z,102194.63
2023-05-19T16:47:37.219Z,102190.25
2023-05-19T16:50:03.914Z,102191.13
2023-05-19T16:52:30.474Z,102204.22
2023-05-19T16:54:58.414Z,102202.53
2023-05-19T16:57:24.858Z,102207.72
2023-05-19T16:59:51.290Z,102200.69
2023-05-19T17:02:34.121Z,102193.84
2023-05-19T17:05:00.701Z,102196.41
2023-05-19T17:07:29.151Z,102192.03
2023-05-19T17:10:04.973Z,102199.97
2023-05-19T17:12:40.618Z,102206.19
2023-05-19T17:15:10.944Z,102203.63
2023-05-19T17:17:37.333Z,102198.41
2023-05-19T17:20:09.271Z,102201.03
2023-05-19T17:22:37.380Z,102203.69
2023-05-19T17:25:03.994Z,102201.03
2023-05-19T17:27:37.992Z,102201.03
2023-05-19T17:30:13.359Z,102193.19
2023-05-19T17:35:24.955Z,102198.59
2023-05-19T17:37:52.709Z,102202.09
2023-05-19T17:40:19.150Z,102203.84
2023-05-19T17:42:45.600Z,102207.41
2023-05-19T17:45:14.743Z,102202.22
2023-05-19T17:47:41.301Z,102197.84
2023-05-19T17:50:07.938Z,102206.63
2023-05-19T17:52:34.464Z,102200.66
2023-05-19T17:55:02.491Z,102192.78
2023-05-19T17:57:29.157Z,102195.44
2023-05-19T17:59:55.846Z,102193.78
2023-05-19T18:02:26.478Z,102207.81
2023-05-19T18:04:53.574Z,102193.78
2023-05-19T18:07:19.999Z,102190.31
2023-05-19T18:09:46.763Z,102189.41
2023-05-19T18:12:14.296Z,102194.69
2023-05-19T18:14:42.055Z,102195.63
2023-05-19T18:17:10.325Z,102195.63
2023-05-19T18:19:36.965Z,102193.91
2023-05-19T18:22:03.541Z,102193.03
2023-05-19T18:24:30.850Z,102191.38
2023-05-19T18:26:57.406Z,102186.97
2023-05-19T18:29:26.876Z,102191.38
2023-05-19T18:31:57.017Z,102191.38
2023-05-19T18:34:23.505Z,102191.38
2023-05-19T18:36:49.922Z,102192.25
2023-05-19T18:39:16.537Z,102198.41
2023-05-19T18:41:42.942Z,102200.16
2023-05-19T18:44:09.392Z,102201.03
2023-05-19T18:51:14.289Z,102210.78
2023-05-19T18:53:40.785Z,102200.16
2023-05-19T18:56:07.423Z,102193.94
2023-05-19T18:59:07.979Z,102200.13
2023-05-19T19:01:34.590Z,102197.53
2023-05-19T19:04:02.588Z,102201.91
2023-05-19T19:06:29.112Z,102198.47
2023-05-19T19:08:55.512Z,102202.81
2023-05-19T19:11:22.472Z,102196.66
2023-05-19T19:13:51.561Z,102202.88
2023-05-19T19:16:18.156Z,102206.41
2023-05-19T19:18:45.924Z,102206.41
2023-05-19T19:21:12.404Z,102195.97
2023-05-19T19:23:38.762Z,102204.72
2023-05-19T19:26:06.953Z,102210.81
2023-05-19T19:28:35.280Z,102201.22
2023-05-19T19:31:01.662Z,102202.97
2023-05-19T19:33:28.060Z,102202.13
2023-05-19T19:35:54.555Z,102198.69
2023-05-19T19:38:21.133Z,102197.75
2023-05-19T19:40:47.531Z,102192.56
2023-05-19T19:43:14.030Z,102197.94
2023-05-19T19:45:41.592Z,102201.41
2023-05-19T19:48:08.174Z,102203.97
2023-05-19T19:50:34.819Z,102200.47
2023-05-19T19:53:04.074Z,102203.97
2023-05-19T19:55:33.515Z,102197.94
2023-05-19T19:57:59.902Z,102193.63
2023-05-19T20:00:26.368Z,102200.03
2023-05-19T20:03:04.314Z,102197.31
2023-05-19T20:05:31.898Z,102194.91
2023-05-19T20:07:58.452Z,102204.63
2023-05-19T20:10:24.987Z,102208.16
2023-05-19T20:12:51.893Z,102206.41
2023-05-19T20:15:18.486Z,102201.22
2023-05-19T20:17:44.899Z,102203.84
2023-05-19T20:20:12.320Z,102207.47
2023-05-19T20:22:39.043Z,102213.53
2023-05-19T20:25:06.083Z,102212.63
2023-05-19T20:27:32.592Z,102208.25
2023-05-19T20:30:01.010Z,102218.81
2023-05-19T20:32:28.518Z,102215.34
2023-05-19T20:34:55.600Z,102219.69
2023-05-19T20:37:22.336Z,102215.25
2023-05-19T20:39:48.772Z,102215.31
2023-05-19T20:42:15.171Z,102215.25
2023-05-19T20:44:41.886Z,102218.81
2023-05-19T20:47:10.416Z,102221.41
2023-05-19T20:49:36.865Z,102223.19
2023-05-19T20:52:03.349Z,102227.66
2023-05-19T20:54:29.784Z,102225.97
2023-05-19T20:56:56.638Z,102223.34
2023-05-19T20:59:23.044Z,102226.84
2023-05-19T21:01:49.479Z,102224.25
2023-05-19T21:04:16.594Z,102226.00
2023-05-19T21:06:43.053Z,102224.31
2023-05-19T21:09:10.705Z,102216.38
2023-05-19T21:11:37.249Z,102228.63
2023-05-19T21:14:08.018Z,102233.97
2023-05-19T21:16:34.554Z,102233.03
2023-05-19T21:19:02.169Z,102230.47
2023-05-19T21:21:28.636Z,102230.47
2023-05-19T21:23:55.012Z,102224.31
2023-05-19T21:26:22.110Z,102225.22
2023-05-19T21:28:48.658Z,102225.22
2023-05-19T21:31:15.250Z,102224.34
2023-05-19T21:33:41.757Z,102225.25
2023-05-19T21:36:08.242Z,102226.19
2023-05-19T21:38:34.727Z,102221.78
2023-05-19T21:41:01.170Z,102219.09
2023-05-19T21:43:27.624Z,102219.16
2023-05-19T21:45:53.993Z,102213.91
2023-05-19T21:48:21.448Z,102220.06
2023-05-19T21:50:57.762Z,102212.19
2023-05-19T21:53:24.404Z,102223.63
2023-05-19T21:55:50.962Z,102216.63
2023-05-19T21:58:18.192Z,102220.16
2023-05-19T22:00:49.030Z,102219.28
2023-05-19T22:03:15.710Z,102217.44
2023-05-19T22:05:42.150Z,102221.81
2023-05-19T22:08:08.650Z,102224.44
2023-05-19T22:10:37.115Z,102230.63
2023-05-19T22:13:03.645Z,102231.56
2023-05-19T22:15:30.051Z,102229.78
2023-05-19T22:17:56.680Z,102232.44
2023-05-19T22:20:23.164Z,102235.91
2023-05-19T22:22:49.687Z,102228.06
2023-05-19T22:25:16.479Z,102221.91
2023-05-19T22:27:42.896Z,102220.22
2023-05-19T22:30:09.390Z,102227.22
2023-05-19T22:32:36.132Z,102224.59
2023-05-19T22:35:02.608Z,102216.72
2023-05-19T22:37:29.128Z,102222.94
2023-05-19T22:39:55.487Z,102224.63
2023-05-19T22:42:21.900Z,102223.75
2023-05-19T22:44:48.353Z,102228.19
2023-05-19T22:47:15.013Z,102221.19
2023-05-19T22:49:41.580Z,102221.13
2023-05-19T22:52:08.542Z,102220.25
2023-05-19T22:54:34.920Z,102219.41
2023-05-19T22:57:01.593Z,102220.25
2023-05-19T22:59:28.062Z,102214.13
2023-05-19T23:01:54.454Z,102208.88
2023-05-19T23:04:21.007Z,102208.84
2023-05-19T23:06:48.651Z,102199.25
2023-05-19T23:09:15.951Z,102191.38
2023-05-19T23:11:42.318Z,102190.56
2023-05-19T23:14:09.854Z,102186.19
2023-05-19T23:16:36.235Z,102185.34
2023-05-19T23:19:02.692Z,102186.22
2023-05-19T23:21:32.495Z,102191.53
2023-05-19T23:23:59.448Z,102197.66
2023-05-19T23:26:27.283Z,102210.84
2023-05-19T23:28:53.729Z,102212.63
2023-05-19T23:31:20.164Z,102214.41
2023-05-19T23:33:46.649Z,102219.59
2023-05-19T23:36:13.092Z,102219.56
2023-05-19T23:38:39.493Z,102216.09
2023-05-19T23:41:06.008Z,102220.47
2023-05-19T23:43:32.560Z,102214.34
2023-05-19T23:45:59.297Z,102220.47
2023-05-19T23:48:26.589Z,102217.91
2023-05-19T23:50:53.157Z,102217.94
2023-05-19T23:53:19.851Z,102217.03
2023-05-19T23:55:46.368Z,102219.69
2023-05-19T23:58:12.847Z,102216.16
